Augusta, West Virginia
Current Conditions -  °F | °C
As of 12:14 PM on Thursday 23 Oct 2014 (Local Time) from KCBE Reporting Station
Scattered Clouds Scattered Clouds  
Wind Chill: 13°   Ceiling: Unl
Heat Index: 13°   Visibility: 10mi
Dew Point:   Wind: 14mph
Humidity: 58%   Direction: 320°NW
Pressure: 30.08"   Gusts: 26mph
Location:  39.3°N, 78.64°W
Report Text: KCBE 231614Z AUTO 32012G23KT 291V021 10SM SCT034 13/05 A3008 RMK AO1
Loading
Personal Weather Stations






























Interactive Weather Map
Tropical Storm Tracking
New forecast layout! Learn more

10-Day Weather Forecast

Advertisements
Track Severe Weather on mobile